Time;durP1;ratioP1;P1;durP2;ratioP2;P2;SDS_P1;SDS_P2;PMS_P1;PMS_P2;Temp;Humidity;BMP_temperature;BMP_pressure;BME280_temperature;BME280_humidity;BME280_pressure;Samples;Min_cycle;Max_cycle;Signal;HPM_P1;HPM_P2
2022/08/03 00:02:02;;;;;;;2.75;2.42;;;;;;;;;;4532075;28;20029;-58
2022/08/03 00:04:13;;;;;;;3.38;2.42;;;;;;;;;;4545042;28;20037;-58
2022/08/03 00:06:23;;;;;;;2.83;2.25;;;;;;;;;;4545457;28;20025;-58
2022/08/03 00:08:33;;;;;;;2.85;2.42;;;;;;;;;;4546852;28;20041;-58
2022/08/03 00:10:44;;;;;;;3.42;2.15;;;;;;;;;;4547120;28;20033;-58
2022/08/03 00:12:54;;;;;;;2.40;2.20;;;;;;;;;;4528469;28;20108;-59
2022/08/03 00:15:05;;;;;;;2.22;2.00;;;;;;;;;;4546926;28;20260;-59
2022/08/03 00:17:16;;;;;;;2.33;2.13;;;;;;;;;;4547718;28;20124;-60
2022/08/03 00:19:26;;;;;;;2.85;2.08;;;;;;;;;;4546188;28;20032;-59
2022/08/03 00:21:37;;;;;;;3.22;2.20;;;;;;;;;;4547431;28;20040;-59
2022/08/03 00:23:48;;;;;;;2.83;2.28;;;;;;;;;;4529194;28;21085;-59
2022/08/03 00:25:58;;;;;;;2.92;2.30;;;;;;;;;;4546179;28;20037;-59
2022/08/03 00:28:09;;;;;;;2.60;2.40;;;;;;;;;;4534530;28;20163;-58
2022/08/03 00:30:19;;;;;;;2.28;2.08;;;;;;;;;;4546754;28;20067;-59
2022/08/03 00:32:30;;;;;;;2.50;2.30;;;;;;;;;;4544732;28;20049;-59
2022/08/03 00:34:40;;;;;;;2.70;2.30;;;;;;;;;;4545906;28;20036;-59
2022/08/03 00:36:50;;;;;;;2.38;2.17;;;;;;;;;;4544390;28;20024;-59
2022/08/03 00:39:01;;;;;;;2.30;2.10;;;;;;;;;;4545102;28;20048;-59
2022/08/03 00:41:11;;;;;;;2.47;2.10;;;;;;;;;;4546743;28;20036;-59
2022/08/03 00:43:25;;;;;;;2.38;1.92;;;;;;;;;;4545899;28;20071;-59
2022/08/03 00:45:38;;;;;;;2.35;2.08;;;;;;;;;;4546207;28;20576;-59
2022/08/03 00:47:49;;;;;;;2.35;2.08;;;;;;;;;;4546596;28;20638;-59
2022/08/03 00:50:00;;;;;;;2.60;2.30;;;;;;;;;;4546242;28;20128;-59
2022/08/03 00:52:12;;;;;;;2.55;2.13;;;;;;;;;;4533230;28;20045;-59
2022/08/03 00:54:24;;;;;;;3.50;2.15;;;;;;;;;;4545910;28;20844;-58
2022/08/03 00:56:35;;;;;;;2.17;1.95;;;;;;;;;;4527492;28;20037;-59
2022/08/03 00:58:46;;;;;;;2.25;2.05;;;;;;;;;;4528803;28;20643;-59
2022/08/03 01:00:56;;;;;;;2.20;2.00;;;;;;;;;;4546254;28;20140;-59
2022/08/03 01:03:08;;;;;;;2.88;2.20;;;;;;;;;;4544815;28;20040;-59
2022/08/03 01:05:19;;;;;;;2.28;2.08;;;;;;;;;;4521787;28;20914;-59
2022/08/03 01:07:49;;;;;;;2.40;2.20;;;;;;;;;;4537422;28;20609;-59
2022/08/03 01:10:02;;;;;;;2.40;2.13;;;;;;;;;;4547774;28;20033;-59
2022/08/03 01:12:31;;;;;;;2.30;2.10;;;;;;;;;;4545345;28;20079;-59
2022/08/03 01:14:51;;;;;;;2.05;1.83;;;;;;;;;;4546865;28;20040;-58
2022/08/03 01:17:34;;;;;;;2.58;2.38;;;;;;;;;;4530844;28;20063;-59
2022/08/03 01:19:54;;;;;;;2.40;2.20;;;;;;;;;;4517153;28;20100;-59
2022/08/03 01:22:32;;;;;;;2.72;1.92;;;;;;;;;;4531325;28;20036;-59
2022/08/03 01:25:02;;;;;;;2.50;2.30;;;;;;;;;;4546845;28;20028;-59
2022/08/03 01:27:13;;;;;;;2.38;2.17;;;;;;;;;;4543967;28;20045;-59
2022/08/03 01:29:45;;;;;;;3.13;2.20;;;;;;;;;;4529557;28;20568;-59
2022/08/03 01:32:01;;;;;;;2.50;2.30;;;;;;;;;;4537197;28;20140;-59
2022/08/03 01:34:14;;;;;;;2.50;2.30;;;;;;;;;;4528116;28;20037;-59
2022/08/03 01:36:30;;;;;;;2.42;2.22;;;;;;;;;;4526239;28;20156;-59
2022/08/03 01:38:47;;;;;;;2.28;2.08;;;;;;;;;;4527293;28;20191;-59
2022/08/03 01:41:03;;;;;;;2.67;2.47;;;;;;;;;;4529760;28;20099;-59
2022/08/03 01:43:15;;;;;;;2.50;2.30;;;;;;;;;;4533467;28;20564;-59
2022/08/03 01:45:26;;;;;;;2.75;2.50;;;;;;;;;;4531589;28;20033;-59
2022/08/03 01:47:37;;;;;;;2.88;2.58;;;;;;;;;;4546683;28;20029;-59
2022/08/03 01:49:49;;;;;;;2.25;2.05;;;;;;;;;;4543265;28;20072;-59
2022/08/03 01:52:00;;;;;;;2.92;2.58;;;;;;;;;;4530687;28;20032;-59
2022/08/03 01:54:11;;;;;;;2.40;2.20;;;;;;;;;;4543432;28;20029;-59
2022/08/03 01:56:23;;;;;;;2.30;2.10;;;;;;;;;;4537520;28;20033;-61
2022/08/03 01:58:35;;;;;;;2.20;2.00;;;;;;;;;;4526082;28;20071;-59
2022/08/03 02:00:48;;;;;;;2.50;2.30;;;;;;;;;;4545120;28;20033;-59
2022/08/03 02:02:59;;;;;;;2.40;2.20;;;;;;;;;;4525744;28;20029;-59
2022/08/03 02:05:10;;;;;;;2.15;1.95;;;;;;;;;;4530268;28;20655;-59
2022/08/03 02:07:22;;;;;;;2.92;2.20;;;;;;;;;;4512117;28;20037;-59
2022/08/03 02:09:33;;;;;;;2.20;2.00;;;;;;;;;;4535242;28;20732;-59
2022/08/03 02:11:43;;;;;;;2.60;2.38;;;;;;;;;;4520625;28;20037;-59
2022/08/03 02:13:55;;;;;;;2.60;2.40;;;;;;;;;;4545334;28;20056;-59
2022/08/03 02:16:06;;;;;;;2.70;2.50;;;;;;;;;;4535328;28;20043;-59
2022/08/03 02:18:17;;;;;;;2.45;2.25;;;;;;;;;;4544249;28;20041;-59
2022/08/03 02:20:30;;;;;;;2.80;2.60;;;;;;;;;;4527461;28;20599;-59
2022/08/03 02:22:42;;;;;;;3.08;2.50;;;;;;;;;;4520611;28;20034;-59
2022/08/03 02:24:52;;;;;;;2.90;2.55;;;;;;;;;;4530378;28;20025;-59
2022/08/03 02:27:08;;;;;;;2.78;2.58;;;;;;;;;;4542559;28;20041;-59
2022/08/03 02:29:20;;;;;;;2.70;2.50;;;;;;;;;;4526485;28;20068;-59
2022/08/03 02:31:33;;;;;;;2.58;2.25;;;;;;;;;;4544813;28;20139;-59
2022/08/03 02:33:50;;;;;;;2.40;2.20;;;;;;;;;;4526927;28;20663;-59
2022/08/03 02:36:00;;;;;;;;;;;;;;;;;;4527399;28;20579;-59
2022/08/03 02:38:14;;;;;;;2.60;2.40;;;;;;;;;;4531015;28;19920;-59
2022/08/03 02:40:27;;;;;;;2.40;2.20;;;;;;;;;;4526961;28;20144;-59
2022/08/03 02:42:38;;;;;;;2.75;2.55;;;;;;;;;;4528863;28;20040;-59
2022/08/03 02:44:49;;;;;;;2.35;2.15;;;;;;;;;;4528099;28;20099;-59
2022/08/03 02:47:02;;;;;;;2.50;2.30;;;;;;;;;;4526397;28;20025;-59
2022/08/03 02:49:15;;;;;;;2.38;2.15;;;;;;;;;;4531637;28;20052;-59
2022/08/03 02:51:27;;;;;;;3.00;2.70;;;;;;;;;;4545105;28;20037;-60
2022/08/03 02:53:37;;;;;;;2.97;2.67;;;;;;;;;;4531381;28;20373;-59
2022/08/03 02:55:49;;;;;;;2.58;2.33;;;;;;;;;;4526192;28;20029;-59
2022/08/03 02:57:59;;;;;;;2.63;2.42;;;;;;;;;;4530657;28;20126;-59
2022/08/03 03:00:11;;;;;;;2.78;2.42;;;;;;;;;;4543532;28;20124;-59
2022/08/03 03:02:23;;;;;;;2.50;2.30;;;;;;;;;;4533377;28;20127;-59
2022/08/03 03:04:34;;;;;;;2.55;2.35;;;;;;;;;;4529649;28;20044;-59
2022/08/03 03:06:44;;;;;;;3.42;2.60;;;;;;;;;;4546728;28;20695;-59
2022/08/03 03:08:55;;;;;;;2.60;2.40;;;;;;;;;;4534037;28;20063;-59
2022/08/03 03:11:06;;;;;;;2.55;2.35;;;;;;;;;;4534000;28;20153;-59
2022/08/03 03:13:18;;;;;;;2.65;2.45;;;;;;;;;;4547216;28;20040;-59
2022/08/03 03:15:30;;;;;;;2.72;2.53;;;;;;;;;;4538973;28;20032;-59
2022/08/03 03:17:42;;;;;;;2.75;2.50;;;;;;;;;;4532792;28;20037;-59
2022/08/03 03:19:53;;;;;;;2.50;2.30;;;;;;;;;;4530630;28;20274;-59
2022/08/03 03:22:05;;;;;;;2.72;2.28;;;;;;;;;;4534340;28;20082;-59
2022/08/03 03:24:16;;;;;;;2.53;2.22;;;;;;;;;;4531257;28;20155;-59
2022/08/03 03:26:26;;;;;;;2.60;2.35;;;;;;;;;;4530696;28;20034;-59
2022/08/03 03:28:37;;;;;;;2.95;2.50;;;;;;;;;;4549947;28;20037;-60
2022/08/03 03:30:48;;;;;;;2.90;2.60;;;;;;;;;;4529592;28;20022;-59
2022/08/03 03:32:59;;;;;;;2.95;2.65;;;;;;;;;;4530546;28;20047;-59
2022/08/03 03:35:10;;;;;;;2.50;2.30;;;;;;;;;;4517742;28;20041;-60
2022/08/03 03:37:21;;;;;;;2.67;2.47;;;;;;;;;;4529597;28;20029;-59
2022/08/03 03:39:31;;;;;;;3.42;2.70;;;;;;;;;;4547146;28;20033;-60
2022/08/03 03:41:42;;;;;;;3.00;2.58;;;;;;;;;;4548984;28;20040;-58
2022/08/03 03:43:53;;;;;;;2.72;2.50;;;;;;;;;;4522836;28;20026;-59
2022/08/03 03:46:03;;;;;;;2.58;2.35;;;;;;;;;;4548491;28;20041;-58
2022/08/03 03:48:14;;;;;;;2.60;2.28;;;;;;;;;;4532113;28;20032;-58
2022/08/03 03:50:25;;;;;;;3.38;2.80;;;;;;;;;;4532178;28;20025;-60
2022/08/03 03:52:35;;;;;;;2.88;2.45;;;;;;;;;;4533195;28;20490;-62
2022/08/03 03:54:46;;;;;;;3.45;2.60;;;;;;;;;;4530093;28;20911;-59
2022/08/03 03:56:56;;;;;;;3.38;2.40;;;;;;;;;;4547598;28;20615;-58
2022/08/03 03:59:07;;;;;;;3.25;2.70;;;;;;;;;;4548170;28;20067;-61
2022/08/03 04:01:17;;;;;;;2.95;2.60;;;;;;;;;;4548228;28;20032;-59
2022/08/03 04:03:28;;;;;;;3.28;2.50;;;;;;;;;;4547895;28;20040;-59
2022/08/03 04:11:02;;;;;;;3.60;2.35;;;;;;;;;;4534530;28;20042;-59
2022/08/03 04:13:14;;;;;;;2.40;2.20;;;;;;;;;;4547939;28;20088;-59
2022/08/03 04:15:26;;;;;;;2.90;2.58;;;;;;;;;;4532096;28;20037;-59
2022/08/03 04:17:37;;;;;;;2.50;2.28;;;;;;;;;;4529002;28;20040;-59
2022/08/03 04:19:51;;;;;;;2.55;2.35;;;;;;;;;;4529602;28;20617;-59
2022/08/03 04:22:05;;;;;;;2.50;2.25;;;;;;;;;;4530247;28;20044;-59
2022/08/03 04:24:17;;;;;;;3.10;2.30;;;;;;;;;;4547624;28;20033;-58
2022/08/03 04:26:30;;;;;;;2.50;2.20;;;;;;;;;;4528385;28;20144;-59
2022/08/03 04:28:44;;;;;;;2.30;2.10;;;;;;;;;;4546160;28;20040;-59
2022/08/03 04:30:55;;;;;;;2.40;2.15;;;;;;;;;;4532581;28;20037;-58
2022/08/03 04:33:07;;;;;;;2.80;2.40;;;;;;;;;;4532724;28;20040;-59
2022/08/03 04:35:18;;;;;;;2.70;2.50;;;;;;;;;;4545948;28;20844;-59
2022/08/03 04:37:31;;;;;;;3.00;2.47;;;;;;;;;;4530810;28;21226;-59
2022/08/03 04:39:43;;;;;;;2.65;2.40;;;;;;;;;;4546479;28;20094;-59
2022/08/03 04:41:57;;;;;;;2.78;2.40;;;;;;;;;;4544662;28;21255;-59
2022/08/03 04:44:07;;;;;;;2.70;2.22;;;;;;;;;;4532670;28;20561;-59
2022/08/03 04:46:19;;;;;;;3.17;2.47;;;;;;;;;;4543736;28;20024;-58
2022/08/03 04:48:29;;;;;;;2.97;2.60;;;;;;;;;;4547681;28;22095;-58
2022/08/03 04:50:41;;;;;;;2.53;2.33;;;;;;;;;;4545629;28;20064;-58
2022/08/03 04:52:51;;;;;;;2.80;2.50;;;;;;;;;;4532345;28;20044;-59
2022/08/03 04:55:02;;;;;;;3.72;2.63;;;;;;;;;;4546590;28;20043;-59
2022/08/03 04:57:12;;;;;;;3.45;2.70;;;;;;;;;;4545470;28;20543;-59
2022/08/03 04:59:23;;;;;;;3.00;2.70;;;;;;;;;;4546389;28;20059;-59
2022/08/03 05:01:33;;;;;;;3.80;2.88;;;;;;;;;;4546502;28;20060;-58
2022/08/03 05:03:44;;;;;;;3.38;2.40;;;;;;;;;;4547609;28;20614;-59
2022/08/03 05:05:54;;;;;;;3.45;2.72;;;;;;;;;;4546717;28;20552;-60
2022/08/03 05:08:05;;;;;;;2.53;2.30;;;;;;;;;;4546711;28;20056;-59
2022/08/03 05:10:16;;;;;;;3.05;2.30;;;;;;;;;;4546528;28;20029;-59
2022/08/03 05:12:26;;;;;;;3.10;2.55;;;;;;;;;;4528556;28;20514;-58
2022/08/03 05:14:37;;;;;;;3.22;2.50;;;;;;;;;;4514963;28;20049;-59
2022/08/03 05:16:48;;;;;;;2.70;2.47;;;;;;;;;;4545453;28;20036;-59
2022/08/03 05:18:58;;;;;;;3.05;2.53;;;;;;;;;;4546939;28;20024;-58
2022/08/03 05:21:09;;;;;;;2.63;2.40;;;;;;;;;;4546121;28;20354;-59
2022/08/03 05:23:20;;;;;;;2.95;2.25;;;;;;;;;;4546301;28;20643;-59
2022/08/03 05:25:30;;;;;;;2.97;2.55;;;;;;;;;;4546761;28;20615;-59
2022/08/03 05:27:41;;;;;;;2.50;2.30;;;;;;;;;;4531931;28;20045;-59
2022/08/03 05:29:51;;;;;;;2.50;2.30;;;;;;;;;;4546498;28;20082;-59
2022/08/03 05:32:02;;;;;;;2.88;2.20;;;;;;;;;;4546898;28;20043;-59
2022/08/03 05:34:13;;;;;;;2.30;2.10;;;;;;;;;;4534182;28;20060;-59
2022/08/03 05:36:23;;;;;;;2.53;2.05;;;;;;;;;;4546168;28;20033;-59
2022/08/03 05:38:34;;;;;;;2.20;2.00;;;;;;;;;;4545965;28;20043;-59
2022/08/03 05:40:44;;;;;;;2.40;2.20;;;;;;;;;;4547637;28;20083;-59
2022/08/03 05:42:55;;;;;;;2.78;2.22;;;;;;;;;;4545865;28;20033;-59
2022/08/03 05:45:17;;;;;;;2.40;2.10;;;;;;;;;;4545972;28;20036;-59
2022/08/03 05:47:27;;;;;;;3.72;2.10;;;;;;;;;;4546651;28;20036;-58
2022/08/03 05:49:38;;;;;;;2.13;1.92;;;;;;;;;;4544844;28;20041;-59
2022/08/03 05:51:48;;;;;;;2.33;1.95;;;;;;;;;;4528617;28;20049;-59
2022/08/03 05:53:59;;;;;;;2.30;1.85;;;;;;;;;;4545037;28;20060;-57
2022/08/03 05:56:10;;;;;;;3.75;2.15;;;;;;;;;;4544436;28;20021;-57
2022/08/03 05:58:21;;;;;;;2.40;2.00;;;;;;;;;;4542614;28;20061;-57
2022/08/03 06:00:31;;;;;;;2.10;1.90;;;;;;;;;;4527791;28;20111;-57
2022/08/03 06:02:42;;;;;;;2.25;1.80;;;;;;;;;;4545896;28;20037;-58
2022/08/03 06:04:52;;;;;;;2.03;1.90;;;;;;;;;;4545293;28;20032;-57
2022/08/03 06:07:03;;;;;;;2.22;1.83;;;;;;;;;;4543614;28;20041;-57
2022/08/03 06:09:14;;;;;;;1.70;1.60;;;;;;;;;;4530410;28;20096;-57
2022/08/03 06:11:24;;;;;;;2.70;2.10;;;;;;;;;;4545528;28;20039;-59
2022/08/03 06:13:35;;;;;;;2.30;1.80;;;;;;;;;;4531891;28;20045;-56
2022/08/03 06:15:45;;;;;;;2.22;1.85;;;;;;;;;;4545425;28;20127;-57
2022/08/03 06:17:56;;;;;;;2.95;2.10;;;;;;;;;;4546767;28;20037;-57
2022/08/03 06:20:07;;;;;;;2.83;1.95;;;;;;;;;;4544135;28;20143;-57
2022/08/03 06:22:17;;;;;;;2.22;2.03;;;;;;;;;;4545979;28;20094;-57
2022/08/03 06:24:28;;;;;;;2.47;1.73;;;;;;;;;;4546186;28;20028;-57
2022/08/03 06:26:38;;;;;;;1.92;1.70;;;;;;;;;;4544996;28;20516;-56
2022/08/03 06:28:49;;;;;;;1.58;1.48;;;;;;;;;;4545982;28;20036;-57
2022/08/03 06:31:00;;;;;;;1.70;1.60;;;;;;;;;;4546859;28;20033;-56
2022/08/03 06:33:10;;;;;;;2.20;2.00;;;;;;;;;;4544934;28;20053;-57
2022/08/03 06:35:21;;;;;;;1.95;1.80;;;;;;;;;;4547323;28;20021;-58
2022/08/03 06:37:44;;;;;;;3.28;2.10;;;;;;;;;;4547725;28;20505;-58
2022/08/03 06:39:55;;;;;;;1.73;1.63;;;;;;;;;;4548187;28;20037;-58
2022/08/03 06:42:05;;;;;;;2.00;1.73;;;;;;;;;;4518120;28;20033;-57
2022/08/03 06:44:17;;;;;;;2.58;1.90;;;;;;;;;;4550288;28;20127;-57
2022/08/03 06:46:27;;;;;;;2.05;1.85;;;;;;;;;;4534769;28;20052;-57
2022/08/03 06:48:37;;;;;;;2.00;1.80;;;;;;;;;;4531244;28;20037;-57
2022/08/03 06:50:48;;;;;;;2.10;1.90;;;;;;;;;;4548485;28;20140;-56
2022/08/03 06:52:59;;;;;;;2.20;1.85;;;;;;;;;;4532985;28;20173;-57
2022/08/03 06:55:10;;;;;;;2.92;1.67;;;;;;;;;;4522776;28;20069;-57
2022/08/03 06:57:21;;;;;;;2.00;1.80;;;;;;;;;;4548129;28;20610;-58
2022/08/03 06:59:31;;;;;;;1.80;1.63;;;;;;;;;;4547610;28;20032;-57
2022/08/03 07:01:42;;;;;;;2.40;2.00;;;;;;;;;;4547468;28;20041;-57
2022/08/03 07:03:53;;;;;;;2.25;1.73;;;;;;;;;;4549348;28;20487;-57
2022/08/03 07:06:04;;;;;;;1.58;1.48;;;;;;;;;;4548305;28;20028;-57
2022/08/03 07:08:14;;;;;;;2.10;1.70;;;;;;;;;;4531062;28;20212;-58
2022/08/03 07:10:25;;;;;;;2.00;1.80;;;;;;;;;;4536506;28;20047;-59
2022/08/03 07:12:35;;;;;;;2.00;1.77;;;;;;;;;;4547660;28;20045;-59
2022/08/03 07:14:46;;;;;;;2.25;1.85;;;;;;;;;;4550683;28;20560;-59
2022/08/03 07:16:56;;;;;;;2.67;1.73;;;;;;;;;;4547390;28;20060;-59
2022/08/03 07:19:07;;;;;;;1.75;1.60;;;;;;;;;;4547409;28;20424;-58
2022/08/03 07:21:17;;;;;;;2.00;1.80;;;;;;;;;;4548166;28;20551;-59
2022/08/03 07:23:28;;;;;;;2.53;1.80;;;;;;;;;;4547215;28;20575;-59
2022/08/03 07:25:38;;;;;;;2.00;1.70;;;;;;;;;;4546608;28;20045;-58
2022/08/03 07:27:48;;;;;;;2.70;1.75;;;;;;;;;;4549160;28;20155;-59
2022/08/03 07:29:59;;;;;;;2.50;1.70;;;;;;;;;;4548023;28;20064;-58
2022/08/03 07:32:09;;;;;;;2.00;1.77;;;;;;;;;;4531568;28;20033;-59
2022/08/03 07:34:20;;;;;;;1.58;1.30;;;;;;;;;;4547313;28;20060;-58
2022/08/03 07:36:31;;;;;;;2.60;1.90;;;;;;;;;;4547808;28;20060;-58
2022/08/03 07:38:41;;;;;;;2.13;1.60;;;;;;;;;;4548490;28;20029;-58
2022/08/03 07:40:52;;;;;;;1.80;1.50;;;;;;;;;;4547833;28;20032;-58
2022/08/03 07:43:03;;;;;;;1.50;1.20;;;;;;;;;;4529162;28;20595;-59
2022/08/03 07:45:14;;;;;;;2.53;1.52;;;;;;;;;;4546558;28;20558;-58
2022/08/03 07:47:27;;;;;;;1.67;1.52;;;;;;;;;;4546154;28;20041;-59
2022/08/03 07:49:39;;;;;;;1.42;1.27;;;;;;;;;;4547081;28;20068;-58
2022/08/03 07:52:46;;;;;;;1.30;1.20;;;;;;;;;;4547729;28;20025;-58
2022/08/03 07:54:20;;;;;;;1.45;1.35;;;;;;;;;;4546229;28;20151;-58
2022/08/03 07:56:31;;;;;;;1.60;1.40;;;;;;;;;;4538574;28;20079;-57
2022/08/03 07:58:41;;;;;;;1.33;1.23;;;;;;;;;;4548717;28;20124;-57
2022/08/03 08:00:52;;;;;;;1.40;1.27;;;;;;;;;;4546840;28;20094;-58
2022/08/03 08:03:06;;;;;;;1.20;1.10;;;;;;;;;;4546872;28;20271;-60
2022/08/03 08:05:19;;;;;;;1.20;1.10;;;;;;;;;;4539449;28;20033;-59
2022/08/03 08:07:33;;;;;;;1.38;1.27;;;;;;;;;;4522240;28;20025;-58
2022/08/03 08:09:43;;;;;;;1.50;1.40;;;;;;;;;;4547008;28;20041;-58
2022/08/03 08:11:53;;;;;;;1.60;1.50;;;;;;;;;;4547576;28;20106;-59
2022/08/03 08:14:06;;;;;;;1.33;1.23;;;;;;;;;;4547836;28;20024;-58
2022/08/03 08:16:16;;;;;;;2.92;1.60;;;;;;;;;;4531549;28;20620;-58
2022/08/03 08:18:30;;;;;;;1.70;1.60;;;;;;;;;;4548369;28;20033;-58
2022/08/03 08:20:40;;;;;;;1.40;1.30;;;;;;;;;;4546425;28;20055;-58
2022/08/03 08:22:51;;;;;;;1.70;1.38;;;;;;;;;;4547866;28;20048;-58
2022/08/03 08:25:02;;;;;;;1.50;1.40;;;;;;;;;;4545908;28;20028;-60
2022/08/03 08:27:12;;;;;;;2.35;1.45;;;;;;;;;;4547046;28;20972;-58
2022/08/03 08:29:23;;;;;;;1.50;1.40;;;;;;;;;;4538502;28;20032;-58
2022/08/03 08:31:33;;;;;;;1.50;1.40;;;;;;;;;;4547280;28;20120;-58
2022/08/03 08:33:44;;;;;;;1.60;1.42;;;;;;;;;;4547266;28;20136;-59
2022/08/03 08:35:54;;;;;;;1.30;1.20;;;;;;;;;;4547053;28;20025;-59
2022/08/03 08:38:04;;;;;;;1.65;1.42;;;;;;;;;;4531298;28;20096;-58
2022/08/03 08:40:15;;;;;;;1.90;1.70;;;;;;;;;;4548135;28;20086;-59
2022/08/03 08:42:25;;;;;;;1.67;1.50;;;;;;;;;;4547573;28;20033;-59
2022/08/03 08:44:36;;;;;;;1.60;1.50;;;;;;;;;;4533509;28;20041;-59
2022/08/03 08:46:47;;;;;;;1.05;1.02;;;;;;;;;;4547236;28;20043;-59
2022/08/03 08:48:58;;;;;;;1.65;1.52;;;;;;;;;;4532508;28;20057;-59
2022/08/03 08:51:10;;;;;;;1.67;1.58;;;;;;;;;;4546691;28;20786;-60
2022/08/03 08:53:23;;;;;;;1.73;1.60;;;;;;;;;;4532590;28;20120;-59
2022/08/03 08:55:34;;;;;;;2.05;1.73;;;;;;;;;;4521861;28;20041;-59
2022/08/03 08:57:52;;;;;;;1.80;1.65;;;;;;;;;;4532702;28;20057;-58
2022/08/03 09:00:13;;;;;;;3.78;1.80;;;;;;;;;;4546270;28;20036;-58
2022/08/03 09:02:24;;;;;;;2.63;1.80;;;;;;;;;;4529369;28;20703;-58
2022/08/03 09:04:37;;;;;;;3.22;2.00;;;;;;;;;;4546817;28;20382;-59
2022/08/03 09:06:48;;;;;;;1.95;1.70;;;;;;;;;;4527639;28;20026;-60
2022/08/03 09:08:58;;;;;;;5.35;2.30;;;;;;;;;;4544974;28;20485;-58
2022/08/03 09:11:09;;;;;;;6.13;2.42;;;;;;;;;;4547637;28;20021;-59
2022/08/03 09:13:19;;;;;;;3.47;2.05;;;;;;;;;;4527325;28;20037;-58
2022/08/03 09:15:31;;;;;;;5.75;1.92;;;;;;;;;;4527768;28;20033;-59
2022/08/03 09:17:42;;;;;;;4.20;2.00;;;;;;;;;;4530569;28;20108;-59
2022/08/03 09:20:06;;;;;;;4.63;2.17;;;;;;;;;;4546898;28;20032;-58
2022/08/03 09:22:17;;;;;;;8.00;2.10;;;;;;;;;;4531831;28;20076;-58
2022/08/03 09:24:27;;;;;;;7.72;2.40;;;;;;;;;;4548205;28;20032;-59
2022/08/03 09:26:38;;;;;;;6.22;2.25;;;;;;;;;;4545466;28;20056;-57
2022/08/03 09:28:56;;;;;;;5.13;2.22;;;;;;;;;;4545789;28;20040;-58
2022/08/03 09:31:07;;;;;;;7.65;2.60;;;;;;;;;;4530447;28;20108;-57
2022/08/03 09:33:18;;;;;;;8.60;3.03;;;;;;;;;;4546731;28;20044;-59
2022/08/03 09:35:28;;;;;;;5.20;2.97;;;;;;;;;;4546524;28;20087;-58
2022/08/03 09:37:39;;;;;;;8.07;3.67;;;;;;;;;;4545606;28;20602;-56
2022/08/03 09:39:50;;;;;;;9.20;3.22;;;;;;;;;;4545730;28;20090;-56
2022/08/03 09:42:06;;;;;;;10.68;3.53;;;;;;;;;;4545834;28;20032;-54
2022/08/03 09:44:16;;;;;;;9.43;3.25;;;;;;;;;;4532304;28;20024;-55
2022/08/03 09:46:30;;;;;;;8.35;3.00;;;;;;;;;;4536646;28;20044;-58
2022/08/03 09:48:41;;;;;;;10.00;3.65;;;;;;;;;;4528706;28;20064;-57
2022/08/03 09:50:52;;;;;;;10.80;3.20;;;;;;;;;;4545626;28;20044;-57
2022/08/03 09:53:03;;;;;;;8.48;3.53;;;;;;;;;;4545689;28;20025;-58
2022/08/03 09:55:13;;;;;;;8.57;3.35;;;;;;;;;;4547659;28;20029;-57
2022/08/03 09:57:26;;;;;;;9.85;3.92;;;;;;;;;;4545297;28;20064;-57
2022/08/03 09:59:36;;;;;;;11.32;3.30;;;;;;;;;;4544980;28;20108;-57
2022/08/03 10:01:47;;;;;;;11.40;3.78;;;;;;;;;;4545405;28;20024;-57
2022/08/03 10:03:58;;;;;;;10.20;3.28;;;;;;;;;;4527809;28;20041;-57
2022/08/03 10:06:19;;;;;;;10.52;3.42;;;;;;;;;;4537408;28;20862;-59
2022/08/03 10:08:31;;;;;;;9.40;3.38;;;;;;;;;;4547389;28;20151;-58
2022/08/03 10:10:42;;;;;;;7.47;3.03;;;;;;;;;;4547323;28;20830;-57
2022/08/03 10:12:53;;;;;;;7.75;3.30;;;;;;;;;;4530109;28;20076;-58
2022/08/03 10:15:05;;;;;;;12.82;3.35;;;;;;;;;;4549539;28;20111;-57
2022/08/03 10:17:15;;;;;;;10.02;3.50;;;;;;;;;;4548657;28;20017;-57
2022/08/03 10:19:25;;;;;;;9.15;3.05;;;;;;;;;;4549287;28;20040;-58
2022/08/03 10:21:38;;;;;;;12.40;3.20;;;;;;;;;;4549424;28;20036;-57
2022/08/03 10:23:49;;;;;;;9.23;3.40;;;;;;;;;;4549611;28;20060;-57
2022/08/03 10:26:02;;;;;;;8.85;3.30;;;;;;;;;;4548659;28;20078;-57
2022/08/03 10:28:15;;;;;;;5.50;2.80;;;;;;;;;;4548189;28;20041;-60
2022/08/03 10:30:26;;;;;;;6.65;3.03;;;;;;;;;;4535028;28;20068;-58
2022/08/03 10:32:48;;;;;;;9.02;3.08;;;;;;;;;;4527493;28;20045;-58
2022/08/03 10:35:04;;;;;;;7.75;3.03;;;;;;;;;;4533481;28;20095;-58
2022/08/03 10:37:16;;;;;;;6.38;3.28;;;;;;;;;;4532090;28;20603;-58
2022/08/03 10:39:28;;;;;;;7.53;2.80;;;;;;;;;;4533682;28;20045;-58
2022/08/03 10:41:45;;;;;;;5.80;2.95;;;;;;;;;;4547565;28;20029;-58
2022/08/03 10:43:55;;;;;;;;;;;;;;;;;;4547333;28;20040;-58
2022/08/03 10:46:07;;;;;;;8.10;2.60;;;;;;;;;;4546963;28;19924;-59
2022/08/03 10:48:18;;;;;;;7.53;2.72;;;;;;;;;;4531034;28;20499;-58
2022/08/03 10:50:29;;;;;;;6.88;2.80;;;;;;;;;;4534705;28;20148;-59
2022/08/03 10:53:00;;;;;;;6.35;2.72;;;;;;;;;;4547675;28;20070;-58
2022/08/03 10:58:03;;;;;;;3.85;2.58;;;;;;;;;;4534118;28;20037;-58
2022/08/03 11:00:19;;;;;;;3.85;2.30;;;;;;;;;;4548972;28;20466;-58
2022/08/03 11:03:05;;;;;;;7.00;2.60;;;;;;;;;;4540135;28;21514;-58
2022/08/03 11:05:29;;;;;;;8.23;2.90;;;;;;;;;;4547525;28;20094;-59
2022/08/03 11:07:39;;;;;;;4.03;1.85;;;;;;;;;;4547556;28;20119;-58
2022/08/03 11:09:54;;;;;;;3.83;2.13;;;;;;;;;;4547887;28;20110;-58
2022/08/03 11:12:23;;;;;;;2.97;1.83;;;;;;;;;;4547461;28;20036;-59
2022/08/03 11:14:46;;;;;;;3.13;1.90;;;;;;;;;;4548704;28;20051;-59
2022/08/03 11:17:06;;;;;;;3.33;1.80;;;;;;;;;;4547056;28;20601;-61
2022/08/03 11:19:26;;;;;;;4.00;2.40;;;;;;;;;;4548421;28;20701;-58
2022/08/03 11:21:52;;;;;;;8.38;2.28;;;;;;;;;;4547615;28;20029;-58
2022/08/03 11:24:02;;;;;;;3.45;1.85;;;;;;;;;;4547787;28;20041;-58
2022/08/03 11:26:13;;;;;;;5.57;1.98;;;;;;;;;;4546633;28;20036;-58
2022/08/03 11:28:27;;;;;;;4.20;1.90;;;;;;;;;;4534669;28;20037;-62
2022/08/03 11:30:38;;;;;;;3.05;1.88;;;;;;;;;;4547467;28;20128;-58
2022/08/03 11:32:50;;;;;;;2.42;1.50;;;;;;;;;;4531727;28;20051;-60
2022/08/03 11:35:08;;;;;;;4.20;1.90;;;;;;;;;;4547629;28;20044;-59
2022/08/03 11:37:22;;;;;;;3.35;1.70;;;;;;;;;;4547663;28;20557;-58
2022/08/03 11:39:42;;;;;;;4.10;2.00;;;;;;;;;;4548859;28;20095;-58
2022/08/03 11:41:52;;;;;;;2.95;1.70;;;;;;;;;;4548111;28;20033;-58
2022/08/03 11:44:03;;;;;;;3.55;1.90;;;;;;;;;;4529594;28;20486;-58
2022/08/03 11:46:20;;;;;;;3.13;1.60;;;;;;;;;;4528761;28;20041;-58
2022/08/03 11:48:43;;;;;;;;;;;;;;;;;;4546326;28;20113;-58
2022/08/03 11:50:53;;;;;;;3.65;1.98;;;;;;;;;;4528600;28;20656;-58
2022/08/03 11:53:04;;;;;;;3.20;1.73;;;;;;;;;;4527032;28;20046;-57
2022/08/03 11:55:19;;;;;;;5.30;2.30;;;;;;;;;;4529176;28;20087;-58
2022/08/03 11:57:31;;;;;;;4.90;2.05;;;;;;;;;;4531389;28;20597;-59
2022/08/03 11:59:41;;;;;;;5.63;2.00;;;;;;;;;;4530204;28;20741;-59
2022/08/03 12:02:08;;;;;;;4.25;1.88;;;;;;;;;;4546199;28;20243;-59
2022/08/03 12:04:18;;;;;;;4.30;2.33;;;;;;;;;;4514464;28;20100;-58
2022/08/03 12:06:29;;;;;;;5.10;1.90;;;;;;;;;;4546627;28;20087;-58
2022/08/03 12:08:40;;;;;;;6.35;2.20;;;;;;;;;;4548271;28;20028;-58
2022/08/03 12:10:52;;;;;;;6.10;2.28;;;;;;;;;;4532852;28;20580;-58
2022/08/03 12:13:09;;;;;;;6.40;2.20;;;;;;;;;;4547583;28;20590;-58
2022/08/03 12:15:32;;;;;;;6.40;2.40;;;;;;;;;;4530356;28;20044;-58
2022/08/03 12:17:43;;;;;;;4.82;2.22;;;;;;;;;;4548121;28;20028;-57
2022/08/03 12:19:53;;;;;;;6.60;2.40;;;;;;;;;;4537531;28;20363;-58
2022/08/03 12:22:04;;;;;;;4.13;2.08;;;;;;;;;;4548872;28;20064;-58
2022/08/03 12:24:14;;;;;;;5.53;2.00;;;;;;;;;;4547730;28;20040;-58
2022/08/03 12:26:25;;;;;;;4.13;2.45;;;;;;;;;;4548115;28;20112;-58
2022/08/03 12:28:36;;;;;;;4.95;2.00;;;;;;;;;;4530430;28;21321;-58
2022/08/03 12:30:48;;;;;;;4.70;2.15;;;;;;;;;;4521564;28;20042;-58
2022/08/03 12:33:12;;;;;;;4.07;2.05;;;;;;;;;;4530271;28;20168;-58
2022/08/03 12:35:23;;;;;;;3.30;2.15;;;;;;;;;;4547411;28;20032;-62
2022/08/03 12:37:34;;;;;;;4.72;2.33;;;;;;;;;;4545832;28;20063;-58
2022/08/03 12:39:49;;;;;;;5.13;1.90;;;;;;;;;;4545250;28;20047;-60
2022/08/03 12:42:00;;;;;;;6.43;2.40;;;;;;;;;;4545190;28;20039;-58
2022/08/03 12:44:10;;;;;;;3.22;2.00;;;;;;;;;;4515962;28;20040;-62
2022/08/03 12:46:21;;;;;;;5.68;2.20;;;;;;;;;;4546533;28;20096;-59
2022/08/03 12:48:31;;;;;;;5.95;2.10;;;;;;;;;;4538212;28;20489;-59
2022/08/03 12:50:42;;;;;;;5.70;2.03;;;;;;;;;;4547324;28;20631;-58
2022/08/03 12:52:53;;;;;;;4.00;2.00;;;;;;;;;;4548068;28;20036;-58
2022/08/03 12:55:04;;;;;;;3.75;1.80;;;;;;;;;;4545013;28;20031;-58
2022/08/03 12:57:14;;;;;;;4.38;2.72;;;;;;;;;;4546871;28;20048;-58
2022/08/03 12:59:26;;;;;;;4.88;1.98;;;;;;;;;;4546735;28;20477;-58
2022/08/03 13:01:37;;;;;;;4.03;1.90;;;;;;;;;;4538375;28;20047;-59
2022/08/03 13:03:48;;;;;;;3.88;1.95;;;;;;;;;;4546360;28;20052;-58
2022/08/03 13:05:59;;;;;;;4.50;1.80;;;;;;;;;;4546256;28;20037;-58
2022/08/03 13:08:19;;;;;;;4.63;2.05;;;;;;;;;;4530315;28;20041;-58
2022/08/03 13:10:31;;;;;;;4.28;1.80;;;;;;;;;;4547820;28;20062;-60
2022/08/03 13:12:48;;;;;;;3.50;1.90;;;;;;;;;;4546659;28;20653;-60
2022/08/03 13:14:59;;;;;;;3.85;1.90;;;;;;;;;;4546766;28;20033;-59
2022/08/03 13:17:10;;;;;;;3.15;1.75;;;;;;;;;;4547050;28;20409;-58
2022/08/03 13:19:20;;;;;;;4.45;2.05;;;;;;;;;;4546748;28;20036;-59
2022/08/03 13:21:31;;;;;;;2.55;1.65;;;;;;;;;;4538157;28;20115;-59
2022/08/03 13:23:42;;;;;;;4.65;1.90;;;;;;;;;;4547039;28;20037;-59